ADDS METAR Data INFO
IDs: Format: Raw Decoded Include TAF

Data at: 1416 UTC 12 Dec 2017

KOCF 121351Z 19005KT 10SM CLR 11/09 A3003 RMK AO2 SLP173 T01060094
KOCF 121251Z 18005KT 10SM CLR 07/06 A3004 RMK AO2 SLP177 T00670061
KOCF 121151Z 18005KT 10SM CLR 06/05 A3004 RMK AO2 SLP176 T00560050 10056 20022 56007
KOCF 121051Z AUTO 17005KT 10SM CLR 05/04 A3004 RMK AO2 SLP177 T00500044
KOCF 120951Z AUTO 18004KT 10SM CLR 03/03 A3006 RMK AO2 SLP181 T00330028
KOCF 120851Z AUTO 18005KT 10SM CLR 03/02 A3006 RMK AO2 SLP183 T00280022 56018
KOCF 120751Z AUTO 00000KT 10SM CLR 03/02 A3008 RMK AO2 SLP189 T00280022
KOCF 120651Z AUTO 00000KT 10SM CLR 03/02 A3009 RMK AO2 SLP194 T00330022
KOCF 120551Z AUTO 00000KT 10SM CLR 03/02 A3011 RMK AO2 SLP201 T00280022 10094 20028 58020
KOCF 120451Z AUTO 00000KT 10SM CLR 03/02 A3014 RMK AO2 SLP210 T00330017 401671017
KOCF 120351Z AUTO 18003KT 10SM CLR 04/02 A3016 RMK AO2 SLP217 T00390017
KOCF 120251Z AUTO 18004KT 10SM CLR 04/02 A3017 RMK AO2 SLP221 T00390017 56006
KOCF 120151Z AUTO 00000KT 10SM CLR 06/02 A3018 RMK AO2 SLP221 T00560017
KOCF 120051Z 19003KT 10SM CLR 07/02 A3019 RMK AO2 SLP225 T00720017
KOCF 112251Z 24006KT 10SM CLR 12/02 A3018 RMK AO2 SLP224 T01220022
KOCF 112151Z 28004KT 10SM CLR 16/M01 A3016 RMK AO2 SLP218 T01561011
KOCF 112051Z COR 29006KT 10SM CLR 17/M02 A3017 RMK AO2 SLP220 T01671017 56018
KOCF 111951Z 29006KT 10SM CLR 17/M04 A3019 RMK AO2 SLP225 T01671039
KOCF 111851Z 25006KT 10SM CLR 16/M02 A3020 RMK AO2 SLP229 T01611022
KOCF 111751Z VRB04KT 10SM CLR 14/M03 A3023 RMK AO2 SLP238 T01441028 10144 21017 58032
KOCF 111651Z 32005KT 10SM CLR 13/M01 A3027 RMK AO2 SLP253 T01331011
KOCF 111551Z 35006KT 10SM CLR 12/M01 A3030 RMK AO2 SLP264 T01171006
KOCF 111451Z 36006KT 10SM CLR 10/01 A3032 RMK AO2 SLP271 T01000006 51002
KOCF 111351Z 00000KT 10SM CLR 04/04 A3032 RMK AO2 SLP270 T00440039
KOCF 111251Z 00000KT 10SM CLR M02/M02 A3032 RMK AO2 SLP271 T10171022
KOCF 111151Z 00000KT 10SM CLR M02/M02 A3031 RMK AO2 SLP268 T10171022 10006 21017 53003
KOCF 111051Z AUTO 00000KT 9SM CLR M02/M02 A3030 RMK AO2 SLP265 T10171022 FZRANO
KOCF 110951Z AUTO 00000KT 10SM CLR M02/M02 A3031 RMK AO2 SLP266 T10171017 FZRANO
KOCF 110851Z AUTO 00000KT 10SM CLR M01/M02 A3030 RMK AO2 SLP264 T10111017 56005 FZRANO
KOCF 110751Z AUTO 00000KT 10SM CLR M01/M01 A3030 RMK AO2 SLP265 T10061011 FZRANO
KOCF 110651Z AUTO 00000KT 10SM CLR M01/M01 A3031 RMK AO2 SLP266 T10061011 FZRANO
KOCF 110551Z AUTO 00000KT 10SM CLR 01/01 A3032 RMK AO2 SLP269 T00060006 10078 20006 58002 FZRANO
KOCF 110451Z AUTO 00000KT 10SM CLR 01/01 A3032 RMK AO2 SLP271 T00110006 401330000 FZRANO
KOCF 110351Z AUTO 00000KT 10SM CLR 02/01 A3033 RMK AO2 SLP274 T00220011 FZRANO
KOCF 110251Z AUTO 00000KT 10SM CLR 03/01 A3032 RMK AO2 SLP272 T00280011 51006